sensor_id;sensor_type;location;lat;lon;timestamp;pressure;altitude;pressure_sealevel;temperature
54026;BMP280;74404;50.662;3.398;2024-01-11T00:00:30;102349.28;;;0.02
54026;BMP280;74404;50.662;3.398;2024-01-11T00:02:56;102352.69;;;0.03
54026;BMP280;74404;50.662;3.398;2024-01-11T00:05:21;102349.28;;;0.02
54026;BMP280;74404;50.662;3.398;2024-01-11T00:07:47;102355.47;;;0.01
54026;BMP280;74404;50.662;3.398;2024-01-11T00:10:13;102349.44;;;0.01
54026;BMP280;74404;50.662;3.398;2024-01-11T00:12:38;102352.06;;;0.01
54026;BMP280;74404;50.662;3.398;2024-01-11T00:15:04;102347.97;;;-0.02
54026;BMP280;74404;50.662;3.398;2024-01-11T00:17:30;102353.88;;;0.00
54026;BMP280;74404;50.662;3.398;2024-01-11T00:19:56;102345.84;;;0.02
54026;BMP280;74404;50.662;3.398;2024-01-11T00:22:21;102361.50;;;0.02
54026;BMP280;74404;50.662;3.398;2024-01-11T00:24:47;102358.88;;;0.02
54026;BMP280;74404;50.662;3.398;2024-01-11T00:27:12;102354.03;;;-0.02
54026;BMP280;74404;50.662;3.398;2024-01-11T00:29:38;102358.75;;;-0.05
54026;BMP280;74404;50.662;3.398;2024-01-11T00:32:03;102362.03;;;-0.03
54026;BMP280;74404;50.662;3.398;2024-01-11T00:34:29;102364.47;;;-0.02
54026;BMP280;74404;50.662;3.398;2024-01-11T00:36:54;102363.97;;;-0.05
54026;BMP280;74404;50.662;3.398;2024-01-11T00:39:20;102362.84;;;-0.03
54026;BMP280;74404;50.662;3.398;2024-01-11T00:41:45;102364.63;;;-0.03
54026;BMP280;74404;50.662;3.398;2024-01-11T00:44:11;102361.19;;;-0.04
54026;BMP280;74404;50.662;3.398;2024-01-11T00:46:36;102362.84;;;-0.03
54026;BMP280;74404;50.662;3.398;2024-01-11T00:49:03;102370.84;;;-0.04
54026;BMP280;74404;50.662;3.398;2024-01-11T00:51:29;102374.59;;;-0.07
54026;BMP280;74404;50.662;3.398;2024-01-11T00:53:54;102380.94;;;-0.01
54026;BMP280;74404;50.662;3.398;2024-01-11T00:56:20;102387.31;;;-0.04
54026;BMP280;74404;50.662;3.398;2024-01-11T00:58:46;102382.09;;;-0.12
54026;BMP280;74404;50.662;3.398;2024-01-11T01:01:12;102386.81;;;-0.07
54026;BMP280;74404;50.662;3.398;2024-01-11T01:03:38;102387.00;;;-0.09
54026;BMP280;74404;50.662;3.398;2024-01-11T01:06:04;102388.81;;;-0.09
54026;BMP280;74404;50.662;3.398;2024-01-11T01:08:30;102400.50;;;-0.05
54026;BMP280;74404;50.662;3.398;2024-01-11T01:10:55;102396.13;;;-0.05
54026;BMP280;74404;50.662;3.398;2024-01-11T01:13:21;102400.50;;;-0.05
54026;BMP280;74404;50.662;3.398;2024-01-11T01:15:46;102404.13;;;-0.06
54026;BMP280;74404;50.662;3.398;2024-01-11T01:18:12;102403.81;;;-0.11
54026;BMP280;74404;50.662;3.398;2024-01-11T01:20:37;102400.38;;;-0.12
54026;BMP280;74404;50.662;3.398;2024-01-11T01:23:03;102395.00;;;-0.10
54026;BMP280;74404;50.662;3.398;2024-01-11T01:25:29;102389.44;;;-0.07
54026;BMP280;74404;50.662;3.398;2024-01-11T01:27:55;102395.16;;;-0.12
54026;BMP280;74404;50.662;3.398;2024-01-11T01:30:20;102404.16;;;-0.14
54026;BMP280;74404;50.662;3.398;2024-01-11T01:32:46;102403.66;;;-0.10
54026;BMP280;74404;50.662;3.398;2024-01-11T01:35:11;102396.16;;;-0.13
54026;BMP280;74404;50.662;3.398;2024-01-11T01:37:37;102403.50;;;-0.08
54026;BMP280;74404;50.662;3.398;2024-01-11T01:40:02;102410.19;;;-0.14
54026;BMP280;74404;50.662;3.398;2024-01-11T01:42:28;102406.44;;;-0.11
54026;BMP280;74404;50.662;3.398;2024-01-11T01:44:53;102412.44;;;-0.11
54026;BMP280;74404;50.662;3.398;2024-01-11T01:47:19;102413.44;;;-0.12
54026;BMP280;74404;50.662;3.398;2024-01-11T01:49:45;102421.91;;;-0.10
54026;BMP280;74404;50.662;3.398;2024-01-11T01:52:13;102425.84;;;-0.14
54026;BMP280;74404;50.662;3.398;2024-01-11T01:54:39;102429.41;;;-0.15
54026;BMP280;74404;50.662;3.398;2024-01-11T01:57:06;102433.34;;;-0.11
54026;BMP280;74404;50.662;3.398;2024-01-11T01:59:33;102443.31;;;-0.14
54026;BMP280;74404;50.662;3.398;2024-01-11T02:01:59;102448.34;;;-0.13
54026;BMP280;74404;50.662;3.398;2024-01-11T02:04:24;102442.81;;;-0.18
54026;BMP280;74404;50.662;3.398;2024-01-11T02:06:51;102440.38;;;-0.20
54026;BMP280;74404;50.662;3.398;2024-01-11T02:09:18;102447.88;;;-0.16
54026;BMP280;74404;50.662;3.398;2024-01-11T02:11:45;102454.06;;;-0.17
54026;BMP280;74404;50.662;3.398;2024-01-11T02:14:10;102453.91;;;-0.16
54026;BMP280;74404;50.662;3.398;2024-01-11T02:16:36;102452.13;;;-0.24
54026;BMP280;74404;50.662;3.398;2024-01-11T02:19:04;102465.31;;;-0.17
54026;BMP280;74404;50.662;3.398;2024-01-11T02:21:30;102455.19;;;-0.20
54026;BMP280;74404;50.662;3.398;2024-01-11T02:24:02;102460.94;;;-0.16
54026;BMP280;74404;50.662;3.398;2024-01-11T02:26:28;102448.84;;;-0.17
54026;BMP280;74404;50.662;3.398;2024-01-11T02:28:53;102452.44;;;-0.19
54026;BMP280;74404;50.662;3.398;2024-01-11T02:31:19;102454.41;;;-0.21
54026;BMP280;74404;50.662;3.398;2024-01-11T02:33:44;102453.25;;;-0.18
54026;BMP280;74404;50.662;3.398;2024-01-11T02:36:10;102452.59;;;-0.20
54026;BMP280;74404;50.662;3.398;2024-01-11T02:38:36;102445.75;;;-0.21
54026;BMP280;74404;50.662;3.398;2024-01-11T02:41:03;102457.97;;;-0.22
54026;BMP280;74404;50.662;3.398;2024-01-11T02:43:28;102461.59;;;-0.23
54026;BMP280;74404;50.662;3.398;2024-01-11T02:45:54;102450.50;;;-0.25
54026;BMP280;74404;50.662;3.398;2024-01-11T02:48:20;102463.03;;;-0.20
54026;BMP280;74404;50.662;3.398;2024-01-11T02:50:46;102459.78;;;-0.22
54026;BMP280;74404;50.662;3.398;2024-01-11T02:53:12;102457.81;;;-0.20
54026;BMP280;74404;50.662;3.398;2024-01-11T02:55:37;102467.28;;;-0.19
54026;BMP280;74404;50.662;3.398;2024-01-11T02:58:03;102460.75;;;-0.23
54026;BMP280;74404;50.662;3.398;2024-01-11T03:00:28;102466.81;;;-0.23
54026;BMP280;74404;50.662;3.398;2024-01-11T03:02:54;102466.47;;;-0.20
54026;BMP280;74404;50.662;3.398;2024-01-11T03:05:19;102461.41;;;-0.21
54026;BMP280;74404;50.662;3.398;2024-01-11T03:07:44;102454.41;;;-0.21
54026;BMP280;74404;50.662;3.398;2024-01-11T03:10:10;102456.38;;;-0.23
54026;BMP280;74404;50.662;3.398;2024-01-11T03:12:35;102458.50;;;-0.26
54026;BMP280;74404;50.662;3.398;2024-01-11T03:15:01;102453.44;;;-0.28
54026;BMP280;74404;50.662;3.398;2024-01-11T03:17:26;102458.97;;;-0.23
54026;BMP280;74404;50.662;3.398;2024-01-11T03:19:52;102454.25;;;-0.27
54026;BMP280;74404;50.662;3.398;2024-01-11T03:22:17;102458.00;;;-0.30
54026;BMP280;74404;50.662;3.398;2024-01-11T03:24:43;102462.06;;;-0.27
54026;BMP280;74404;50.662;3.398;2024-01-11T03:27:08;102469.56;;;-0.24
54026;BMP280;74404;50.662;3.398;2024-01-11T03:29:33;102459.63;;;-0.29
54026;BMP280;74404;50.662;3.398;2024-01-11T03:31:59;102453.94;;;-0.32
54026;BMP280;74404;50.662;3.398;2024-01-11T03:34:26;102448.56;;;-0.31
54026;BMP280;74404;50.662;3.398;2024-01-11T03:36:52;102451.97;;;-0.30
54026;BMP280;74404;50.662;3.398;2024-01-11T03:39:17;102450.16;;;-0.30
54026;BMP280;74404;50.662;3.398;2024-01-11T03:41:44;102458.00;;;-0.30
54026;BMP280;74404;50.662;3.398;2024-01-11T03:44:10;102453.78;;;-0.31
54026;BMP280;74404;50.662;3.398;2024-01-11T03:46:36;102449.34;;;-0.30
54026;BMP280;74404;50.662;3.398;2024-01-11T03:49:02;102453.59;;;-0.29
54026;BMP280;74404;50.662;3.398;2024-01-11T03:51:27;102458.16;;;-0.31
54026;BMP280;74404;50.662;3.398;2024-01-11T03:53:53;102454.56;;;-0.30
54026;BMP280;74404;50.662;3.398;2024-01-11T03:56:18;102444.13;;;-0.30
54026;BMP280;74404;50.662;3.398;2024-01-11T03:58:44;102448.56;;;-0.31
54026;BMP280;74404;50.662;3.398;2024-01-11T04:01:10;102453.09;;;-0.33
54026;BMP280;74404;50.662;3.398;2024-01-11T04:03:36;102453.78;;;-0.31
54026;BMP280;74404;50.662;3.398;2024-01-11T04:06:03;102453.94;;;-0.32
54026;BMP280;74404;50.662;3.398;2024-01-11T04:08:28;102443.50;;;-0.32
54026;BMP280;74404;50.662;3.398;2024-01-11T04:10:54;102446.91;;;-0.32
54026;BMP280;74404;50.662;3.398;2024-01-11T04:13:19;102441.03;;;-0.34
54026;BMP280;74404;50.662;3.398;2024-01-11T04:15:45;102444.59;;;-0.35
54026;BMP280;74404;50.662;3.398;2024-01-11T04:18:10;102443.78;;;-0.35
54026;BMP280;74404;50.662;3.398;2024-01-11T04:20:35;102441.66;;;-0.40
54026;BMP280;74404;50.662;3.398;2024-01-11T04:23:01;102450.81;;;-0.36
54026;BMP280;74404;50.662;3.398;2024-01-11T04:25:26;102456.66;;;-0.34
54026;BMP280;74404;50.662;3.398;2024-01-11T04:27:52;102462.22;;;-0.37
54026;BMP280;74404;50.662;3.398;2024-01-11T04:30:18;102451.78;;;-0.37
54026;BMP280;74404;50.662;3.398;2024-01-11T04:32:43;102457.00;;;-0.37
54026;BMP280;74404;50.662;3.398;2024-01-11T04:35:08;102461.25;;;-0.36
54026;BMP280;74404;50.662;3.398;2024-01-11T04:37:35;102461.09;;;-0.34
54026;BMP280;74404;50.662;3.398;2024-01-11T04:40:01;102463.19;;;-0.38
54026;BMP280;74404;50.662;3.398;2024-01-11T04:42:29;102454.72;;;-0.48
54026;BMP280;74404;50.662;3.398;2024-01-11T04:44:55;102467.94;;;-0.42
54026;BMP280;74404;50.662;3.398;2024-01-11T04:47:20;102472.50;;;-0.35
54026;BMP280;74404;50.662;3.398;2024-01-11T04:49:46;102469.56;;;-0.41
54026;BMP280;74404;50.662;3.398;2024-01-11T04:52:11;102463.69;;;-0.43
54026;BMP280;74404;50.662;3.398;2024-01-11T04:54:37;102458.50;;;-0.43
54026;BMP280;74404;50.662;3.398;2024-01-11T04:57:03;102472.34;;;-0.42
54026;BMP280;74404;50.662;3.398;2024-01-11T04:59:29;102476.75;;;-0.43
54026;BMP280;74404;50.662;3.398;2024-01-11T05:01:54;102473.97;;;-0.41
54026;BMP280;74404;50.662;3.398;2024-01-11T05:04:20;102471.38;;;-0.41
54026;BMP280;74404;50.662;3.398;2024-01-11T05:06:45;102473.31;;;-0.43
54026;BMP280;74404;50.662;3.398;2024-01-11T05:09:11;102472.50;;;-0.44
54026;BMP280;74404;50.662;3.398;2024-01-11T05:11:36;102473.97;;;-0.49
54026;BMP280;74404;50.662;3.398;2024-01-11T05:14:01;102484.91;;;-0.46
54026;BMP280;74404;50.662;3.398;2024-01-11T05:16:27;102493.69;;;-0.47
54026;BMP280;74404;50.662;3.398;2024-01-11T05:18:55;102491.06;;;-0.47
54026;BMP280;74404;50.662;3.398;2024-01-11T05:21:21;102487.19;;;-0.51
54026;BMP280;74404;50.662;3.398;2024-01-11T05:23:46;102495.34;;;-0.46
54026;BMP280;74404;50.662;3.398;2024-01-11T05:26:14;102502.50;;;-0.48
54026;BMP280;74404;50.662;3.398;2024-01-11T05:28:40;102494.69;;;-0.48
54026;BMP280;74404;50.662;3.398;2024-01-11T05:31:15;102500.88;;;-0.49
54026;BMP280;74404;50.662;3.398;2024-01-11T05:33:41;102497.28;;;-0.48
54026;BMP280;74404;50.662;3.398;2024-01-11T05:36:07;102517.97;;;-0.46
54026;BMP280;74404;50.662;3.398;2024-01-11T05:38:34;102507.88;;;-0.49
54026;BMP280;74404;50.662;3.398;2024-01-11T05:40:59;102503.81;;;-0.52
54026;BMP280;74404;50.662;3.398;2024-01-11T05:43:25;102508.38;;;-0.54
54026;BMP280;74404;50.662;3.398;2024-01-11T05:45:50;102506.41;;;-0.52
54026;BMP280;74404;50.662;3.398;2024-01-11T05:48:17;102510.16;;;-0.55
54026;BMP280;74404;50.662;3.398;2024-01-11T05:50:46;102512.75;;;-0.55
54026;BMP280;74404;50.662;3.398;2024-01-11T05:53:12;102523.38;;;-0.48
54026;BMP280;74404;50.662;3.398;2024-01-11T05:55:38;102512.75;;;-0.55
54026;BMP280;74404;50.662;3.398;2024-01-11T05:58:03;102527.13;;;-0.50
54026;BMP280;74404;50.662;3.398;2024-01-11T06:00:29;102530.03;;;-0.53
54026;BMP280;74404;50.662;3.398;2024-01-11T06:02:54;102525.63;;;-0.53
54026;BMP280;74404;50.662;3.398;2024-01-11T06:05:20;102530.53;;;-0.58
54026;BMP280;74404;50.662;3.398;2024-01-11T06:07:45;102539.19;;;-0.58
54026;BMP280;74404;50.662;3.398;2024-01-11T06:10:11;102540.16;;;-0.59
54026;BMP280;74404;50.662;3.398;2024-01-11T06:12:36;102551.53;;;-0.60
54026;BMP280;74404;50.662;3.398;2024-01-11T06:15:02;102553.19;;;-0.59
54026;BMP280;74404;50.662;3.398;2024-01-11T06:17:28;102555.97;;;-0.60
54026;BMP280;74404;50.662;3.398;2024-01-11T06:19:54;102557.44;;;-0.58
54026;BMP280;74404;50.662;3.398;2024-01-11T06:22:20;102549.94;;;-0.61
54026;BMP280;74404;50.662;3.398;2024-01-11T06:24:46;102560.38;;;-0.61
54026;BMP280;74404;50.662;3.398;2024-01-11T06:27:11;102555.63;;;-0.57
54026;BMP280;74404;50.662;3.398;2024-01-11T06:29:36;102558.09;;;-0.56
54026;BMP280;74404;50.662;3.398;2024-01-11T06:32:02;102557.09;;;-0.55
54026;BMP280;74404;50.662;3.398;2024-01-11T06:34:28;102553.19;;;-0.59
54026;BMP280;74404;50.662;3.398;2024-01-11T06:36:54;102568.69;;;-0.57
54026;BMP280;74404;50.662;3.398;2024-01-11T06:39:20;102566.88;;;-0.57
54026;BMP280;74404;50.662;3.398;2024-01-11T06:41:46;102585.97;;;-0.56
54026;BMP280;74404;50.662;3.398;2024-01-11T06:44:11;102577.63;;;-0.60
54026;BMP280;74404;50.662;3.398;2024-01-11T06:46:37;102574.06;;;-0.59
54026;BMP280;74404;50.662;3.398;2024-01-11T06:49:05;102572.25;;;-0.58
54026;BMP280;74404;50.662;3.398;2024-01-11T06:51:30;102577.16;;;-0.55
54026;BMP280;74404;50.662;3.398;2024-01-11T06:53:55;102584.16;;;-0.56
54026;BMP280;74404;50.662;3.398;2024-01-11T06:56:21;102574.69;;;-0.57
54026;BMP280;74404;50.662;3.398;2024-01-11T06:58:47;102568.69;;;-0.57
54026;BMP280;74404;50.662;3.398;2024-01-11T07:01:13;102573.72;;;-0.56
54026;BMP280;74404;50.662;3.398;2024-01-11T07:03:39;102572.94;;;-0.56
54026;BMP280;74404;50.662;3.398;2024-01-11T07:06:05;102574.53;;;-0.55
54026;BMP280;74404;50.662;3.398;2024-01-11T07:08:31;102581.41;;;-0.54
54026;BMP280;74404;50.662;3.398;2024-01-11T07:10:58;102581.72;;;-0.57
54026;BMP280;74404;50.662;3.398;2024-01-11T07:13:25;102583.38;;;-0.56
54026;BMP280;74404;50.662;3.398;2024-01-11T07:15:50;102588.56;;;-0.56
54026;BMP280;74404;50.662;3.398;2024-01-11T07:18:17;102594.13;;;-0.59
54026;BMP280;74404;50.662;3.398;2024-01-11T07:20:42;102595.38;;;-0.63
54026;BMP280;74404;50.662;3.398;2024-01-11T07:23:09;102599.66;;;-0.62
54026;BMP280;74404;50.662;3.398;2024-01-11T07:25:34;102593.59;;;-0.63
54026;BMP280;74404;50.662;3.398;2024-01-11T07:28:00;102592.78;;;-0.63
54026;BMP280;74404;50.662;3.398;2024-01-11T07:30:26;102593.59;;;-0.63
54026;BMP280;74404;50.662;3.398;2024-01-11T07:32:51;102581.38;;;-0.62
54026;BMP280;74404;50.662;3.398;2024-01-11T07:35:17;102595.38;;;-0.63
54026;BMP280;74404;50.662;3.398;2024-01-11T07:37:43;102605.03;;;-0.64
54026;BMP280;74404;50.662;3.398;2024-01-11T07:40:09;102606.28;;;-0.68
54026;BMP280;74404;50.662;3.398;2024-01-11T07:42:40;102611.84;;;-0.63
54026;BMP280;74404;50.662;3.398;2024-01-11T07:45:09;102609.25;;;-0.63
54026;BMP280;74404;50.662;3.398;2024-01-11T07:47:38;102615.78;;;-0.59
54026;BMP280;74404;50.662;3.398;2024-01-11T07:50:07;102611.53;;;-0.60
54026;BMP280;74404;50.662;3.398;2024-01-11T07:52:34;102619.34;;;-0.60
54026;BMP280;74404;50.662;3.398;2024-01-11T07:55:00;102612.38;;;-0.59
54026;BMP280;74404;50.662;3.398;2024-01-11T07:57:32;102617.59;;;-0.59
54026;BMP280;74404;50.662;3.398;2024-01-11T07:59:58;102629.78;;;-0.60
54026;BMP280;74404;50.662;3.398;2024-01-11T08:02:24;102621.31;;;-0.62
54026;BMP280;74404;50.662;3.398;2024-01-11T08:04:50;102622.81;;;-0.59
54026;BMP280;74404;50.662;3.398;2024-01-11T08:07:15;102623.59;;;-0.59
54026;BMP280;74404;50.662;3.398;2024-01-11T08:09:41;102626.53;;;-0.62
54026;BMP280;74404;50.662;3.398;2024-01-11T08:12:11;102625.56;;;-0.61
54026;BMP280;74404;50.662;3.398;2024-01-11T08:14:37;102625.72;;;-0.62
54026;BMP280;74404;50.662;3.398;2024-01-11T08:17:03;102634.50;;;-0.63
54026;BMP280;74404;50.662;3.398;2024-01-11T08:19:31;102626.53;;;-0.62
54026;BMP280;74404;50.662;3.398;2024-01-11T08:21:57;102619.03;;;-0.65
54026;BMP280;74404;50.662;3.398;2024-01-11T08:24:23;102637.94;;;-0.63
54026;BMP280;74404;50.662;3.398;2024-01-11T08:26:50;102644.94;;;-0.63
54026;BMP280;74404;50.662;3.398;2024-01-11T08:29:16;102644.94;;;-0.63
54026;BMP280;74404;50.662;3.398;2024-01-11T08:31:41;102641.38;;;-0.62
54026;BMP280;74404;50.662;3.398;2024-01-11T08:34:08;102655.69;;;-0.66
54026;BMP280;74404;50.662;3.398;2024-01-11T08:36:35;102639.38;;;-0.68
54026;BMP280;74404;50.662;3.398;2024-01-11T08:39:05;102641.53;;;-0.64
54026;BMP280;74404;50.662;3.398;2024-01-11T08:41:31;102639.06;;;-0.65
54026;BMP280;74404;50.662;3.398;2024-01-11T08:43:58;102628.50;;;-0.64
54026;BMP280;74404;50.662;3.398;2024-01-11T08:46:27;102618.22;;;-0.65
54026;BMP280;74404;50.662;3.398;2024-01-11T08:48:54;102612.03;;;-0.64
54026;BMP280;74404;50.662;3.398;2024-01-11T08:51:21;102627.84;;;-0.66
54026;BMP280;74404;50.662;3.398;2024-01-11T08:53:47;102631.25;;;-0.65
54026;BMP280;74404;50.662;3.398;2024-01-11T08:56:12;102624.38;;;-0.66
54026;BMP280;74404;50.662;3.398;2024-01-11T08:58:39;102638.91;;;-0.64
54026;BMP280;74404;50.662;3.398;2024-01-11T09:01:05;102649.34;;;-0.64
54026;BMP280;74404;50.662;3.398;2024-01-11T09:03:34;102651.16;;;-0.64
54026;BMP280;74404;50.662;3.398;2024-01-11T09:05:59;102649.81;;;-0.68
54026;BMP280;74404;50.662;3.398;2024-01-11T09:08:25;102670.53;;;-0.67
54026;BMP280;74404;50.662;3.398;2024-01-11T09:10:51;102655.69;;;-0.66
54026;BMP280;74404;50.662;3.398;2024-01-11T09:13:18;102662.38;;;-0.64
54026;BMP280;74404;50.662;3.398;2024-01-11T09:15:43;102672.81;;;-0.64
54026;BMP280;74404;50.662;3.398;2024-01-11T09:18:09;102673.78;;;-0.65
54026;BMP280;74404;50.662;3.398;2024-01-11T09:20:35;102677.22;;;-0.64
54026;BMP280;74404;50.662;3.398;2024-01-11T09:23:00;102668.25;;;-0.62
54026;BMP280;74404;50.662;3.398;2024-01-11T09:25:29;102667.94;;;-0.59
54026;BMP280;74404;50.662;3.398;2024-01-11T09:27:55;102659.31;;;-0.59
54026;BMP280;74404;50.662;3.398;2024-01-11T09:30:20;102663.69;;;-0.60
54026;BMP280;74404;50.662;3.398;2024-01-11T09:32:46;102667.13;;;-0.59
54026;BMP280;74404;50.662;3.398;2024-01-11T09:35:13;102664.03;;;-0.55
54026;BMP280;74404;50.662;3.398;2024-01-11T09:37:38;102677.59;;;-0.51
54026;BMP280;74404;50.662;3.398;2024-01-11T09:40:05;102683.13;;;-0.54
54026;BMP280;74404;50.662;3.398;2024-01-11T09:42:38;102693.09;;;-0.49
54026;BMP280;74404;50.662;3.398;2024-01-11T09:45:09;102692.25;;;-0.50
54026;BMP280;74404;50.662;3.398;2024-01-11T09:47:36;102692.25;;;-0.50
54026;BMP280;74404;50.662;3.398;2024-01-11T09:50:06;102684.28;;;-0.48
54026;BMP280;74404;50.662;3.398;2024-01-11T09:52:32;102692.75;;;-0.46
54026;BMP280;74404;50.662;3.398;2024-01-11T09:55:01;102692.44;;;-0.43
54026;BMP280;74404;50.662;3.398;2024-01-11T09:57:29;102689.81;;;-0.43
54026;BMP280;74404;50.662;3.398;2024-01-11T09:59:56;102694.56;;;-0.39
54026;BMP280;74404;50.662;3.398;2024-01-11T10:02:25;102683.00;;;-0.36
54026;BMP280;74404;50.662;3.398;2024-01-11T10:04:55;102683.53;;;-0.32
54026;BMP280;74404;50.662;3.398;2024-01-11T10:07:24;102690.88;;;-0.28
54026;BMP280;74404;50.662;3.398;2024-01-11T10:09:52;102691.38;;;-0.24
54026;BMP280;74404;50.662;3.398;2024-01-11T10:12:18;102691.88;;;-0.21
54026;BMP280;74404;50.662;3.398;2024-01-11T10:14:46;102690.75;;;-0.18
54026;BMP280;74404;50.662;3.398;2024-01-11T10:17:13;102697.59;;;-0.17
54026;BMP280;74404;50.662;3.398;2024-01-11T10:19:39;102703.66;;;-0.08
54026;BMP280;74404;50.662;3.398;2024-01-11T10:22:05;102711.31;;;-0.07
54026;BMP280;74404;50.662;3.398;2024-01-11T10:24:32;102710.97;;;-0.04
54026;BMP280;74404;50.662;3.398;2024-01-11T10:26:58;102718.50;;;-0.01
54026;BMP280;74404;50.662;3.398;2024-01-11T10:29:32;102718.00;;;0.04
54026;BMP280;74404;50.662;3.398;2024-01-11T10:31:58;102710.84;;;0.06
54026;BMP280;74404;50.662;3.398;2024-01-11T10:34:23;102711.47;;;0.08
54026;BMP280;74404;50.662;3.398;2024-01-11T10:36:50;102708.72;;;0.10
54026;BMP280;74404;50.662;3.398;2024-01-11T10:39:16;102718.03;;;0.12
54026;BMP280;74404;50.662;3.398;2024-01-11T10:41:47;102712.97;;;0.19
54026;BMP280;74404;50.662;3.398;2024-01-11T10:44:21;102716.06;;;0.23
54026;BMP280;74404;50.662;3.398;2024-01-11T10:46:49;102718.53;;;0.24
54026;BMP280;74404;50.662;3.398;2024-01-11T10:49:19;102709.56;;;0.27
54026;BMP280;74404;50.662;3.398;2024-01-11T10:51:57;102723.25;;;0.29
54026;BMP280;74404;50.662;3.398;2024-01-11T10:54:24;102724.91;;;0.30
54026;BMP280;74404;50.662;3.398;2024-01-11T10:56:52;102730.44;;;0.35
54026;BMP280;74404;50.662;3.398;2024-01-11T10:59:20;102732.72;;;0.38
54026;BMP280;74404;50.662;3.398;2024-01-11T11:01:53;102733.53;;;0.39
54026;BMP280;74404;50.662;3.398;2024-01-11T11:04:23;102727.31;;;0.40
54026;BMP280;74404;50.662;3.398;2024-01-11T11:06:50;102725.38;;;0.42
54026;BMP280;74404;50.662;3.398;2024-01-11T11:09:17;102726.81;;;0.44
54026;BMP280;74404;50.662;3.398;2024-01-11T11:11:45;102723.88;;;0.47
54026;BMP280;74404;50.662;3.398;2024-01-11T11:14:14;102733.38;;;0.48
54026;BMP280;74404;50.662;3.398;2024-01-11T11:16:40;102725.38;;;0.50
54026;BMP280;74404;50.662;3.398;2024-01-11T11:19:06;102723.88;;;0.47
54026;BMP280;74404;50.662;3.398;2024-01-11T11:21:32;102722.59;;;0.51
54026;BMP280;74404;50.662;3.398;2024-01-11T11:23:57;102733.34;;;0.57
54026;BMP280;74404;50.662;3.398;2024-01-11T11:26:26;102727.97;;;0.58
54026;BMP280;74404;50.662;3.398;2024-01-11T11:28:53;102731.22;;;0.60
54026;BMP280;74404;50.662;3.398;2024-01-11T11:31:41;102727.81;;;0.60
54026;BMP280;74404;50.662;3.398;2024-01-11T11:34:07;102726.66;;;0.62
54026;BMP280;74404;50.662;3.398;2024-01-11T11:36:36;102727.28;;;0.64
54026;BMP280;74404;50.662;3.398;2024-01-11T11:39:02;102722.41;;;0.69
54026;BMP280;74404;50.662;3.398;2024-01-11T11:41:30;102712.28;;;0.66
54026;BMP280;74404;50.662;3.398;2024-01-11T11:44:02;102723.06;;;0.71
54026;BMP280;74404;50.662;3.398;2024-01-11T11:46:29;102722.06;;;0.72
54026;BMP280;74404;50.662;3.398;2024-01-11T11:48:55;102732.34;;;0.74
54026;BMP280;74404;50.662;3.398;2024-01-11T11:51:22;102720.59;;;0.78
54026;BMP280;74404;50.662;3.398;2024-01-11T11:53:49;102725.81;;;0.78
54026;BMP280;74404;50.662;3.398;2024-01-11T11:56:21;102718.94;;;0.77
54026;BMP280;74404;50.662;3.398;2024-01-11T11:58:48;102716.34;;;0.77
54026;BMP280;74404;50.662;3.398;2024-01-11T12:01:15;102711.75;;;0.79
54026;BMP280;74404;50.662;3.398;2024-01-11T12:03:43;102704.41;;;0.83
54026;BMP280;74404;50.662;3.398;2024-01-11T12:06:16;102707.34;;;0.88
54026;BMP280;74404;50.662;3.398;2024-01-11T12:08:43;102710.13;;;0.86
54026;BMP280;74404;50.662;3.398;2024-01-11T12:11:08;102709.78;;;0.89
54026;BMP280;74404;50.662;3.398;2024-01-11T12:13:35;102704.56;;;0.89
54026;BMP280;74404;50.662;3.398;2024-01-11T12:16:01;102711.25;;;0.92
54026;BMP280;74404;50.662;3.398;2024-01-11T12:18:27;102708.47;;;0.93
54026;BMP280;74404;50.662;3.398;2024-01-11T12:20:53;102706.69;;;0.94
54026;BMP280;74404;50.662;3.398;2024-01-11T12:23:19;102701.94;;;0.98
54026;BMP280;74404;50.662;3.398;2024-01-11T12:25:44;102701.09;;;0.97
54026;BMP280;74404;50.662;3.398;2024-01-11T12:28:10;102706.81;;;1.01
54026;BMP280;74404;50.662;3.398;2024-01-11T12:30:36;102704.84;;;1.03
54026;BMP280;74404;50.662;3.398;2024-01-11T12:33:02;102704.84;;;1.03
54026;BMP280;74404;50.662;3.398;2024-01-11T12:35:28;102701.06;;;1.05
54026;BMP280;74404;50.662;3.398;2024-01-11T12:37:54;102695.50;;;1.08
54026;BMP280;74404;50.662;3.398;2024-01-11T12:40:21;102695.34;;;1.10
54026;BMP280;74404;50.662;3.398;2024-01-11T12:42:47;102701.22;;;1.12
54026;BMP280;74404;50.662;3.398;2024-01-11T12:45:15;102700.22;;;1.13
54026;BMP280;74404;50.662;3.398;2024-01-11T12:47:41;102698.25;;;1.15
54026;BMP280;74404;50.662;3.398;2024-01-11T12:50:07;102701.53;;;1.17
54026;BMP280;74404;50.662;3.398;2024-01-11T12:52:33;102708.06;;;1.21
54026;BMP280;74404;50.662;3.398;2024-01-11T12:54:58;102712.47;;;1.21
54026;BMP280;74404;50.662;3.398;2024-01-11T12:57:25;102701.84;;;1.22
54026;BMP280;74404;50.662;3.398;2024-01-11T12:59:52;102712.94;;;1.24
54026;BMP280;74404;50.662;3.398;2024-01-11T13:02:18;102706.75;;;1.25
54026;BMP280;74404;50.662;3.398;2024-01-11T13:04:45;102708.34;;;1.26
54026;BMP280;74404;50.662;3.398;2024-01-11T13:07:13;102709.84;;;1.29
54026;BMP280;74404;50.662;3.398;2024-01-11T13:09:41;102701.66;;;1.32
54026;BMP280;74404;50.662;3.398;2024-01-11T13:12:06;102703.25;;;1.33
54026;BMP280;74404;50.662;3.398;2024-01-11T13:14:32;102701.28;;;1.35
54026;BMP280;74404;50.662;3.398;2024-01-11T13:16:58;102702.09;;;1.36
54026;BMP280;74404;50.662;3.398;2024-01-11T13:19:23;102697.66;;;1.36
54026;BMP280;74404;50.662;3.398;2024-01-11T13:21:49;102701.91;;;1.37
54026;BMP280;74404;50.662;3.398;2024-01-11T13:24:15;102708.75;;;1.38
54026;BMP280;74404;50.662;3.398;2024-01-11T13:26:40;102710.25;;;1.41
54026;BMP280;74404;50.662;3.398;2024-01-11T13:29:06;102718.72;;;1.43
54026;BMP280;74404;50.662;3.398;2024-01-11T13:31:32;102715.13;;;1.44
54026;BMP280;74404;50.662;3.398;2024-01-11T13:33:58;102717.75;;;1.44
54026;BMP280;74404;50.662;3.398;2024-01-11T13:36:24;102721.00;;;1.46
54026;BMP280;74404;50.662;3.398;2024-01-11T13:38:50;102707.28;;;1.44
54026;BMP280;74404;50.662;3.398;2024-01-11T13:41:16;102720.03;;;1.47
54026;BMP280;74404;50.662;3.398;2024-01-11T13:43:43;102715.59;;;1.47
54026;BMP280;74404;50.662;3.398;2024-01-11T13:46:08;102713.44;;;1.51
54026;BMP280;74404;50.662;3.398;2024-01-11T13:48:34;102712.13;;;1.55
54026;BMP280;74404;50.662;3.398;2024-01-11T13:51:01;102706.91;;;1.55
54026;BMP280;74404;50.662;3.398;2024-01-11T13:53:28;102704.94;;;1.57